Time;durP1;ratioP1;P1;durP2;ratioP2;P2;SDS_P1;SDS_P2;PMS_P1;PMS_P2;Temp;Humidity;BMP_temperature;BMP_pressure;BME280_temperature;BME280_humidity;BME280_pressure;Samples;Min_cycle;Max_cycle;Signal;HPM_P1;HPM_P2
2022/06/21 00:00:29;;;;;;;9.52;3.95;;;14.10;96.40;;;;;;4938511;28;92591;-71
2022/06/21 00:03:00;;;;;;;6.93;3.25;;;14.00;96.40;;;;;;4938254;28;91887;-71
2022/06/21 00:05:31;;;;;;;9.27;3.00;;;14.00;96.40;;;;;;4953147;28;92546;-71
2022/06/21 00:07:58;;;;;;;5.57;2.40;;;14.00;96.50;;;;;;4936420;28;95552;-71
2022/06/21 00:10:25;;;;;;;10.75;3.17;;;14.00;96.50;;;;;;4936959;28;95309;-71
2022/06/21 00:12:52;;;;;;;9.68;2.58;;;13.90;96.60;;;;;;4952816;28;92553;-71
2022/06/21 00:15:19;;;;;;;8.38;2.85;;;13.90;96.60;;;;;;4937905;28;93271;-71
2022/06/21 00:17:48;;;;;;;6.90;2.90;;;13.90;96.50;;;;;;4936202;28;95844;-71
2022/06/21 00:20:20;;;;;;;5.97;3.40;;;13.80;96.50;;;;;;4936553;28;92404;-71
2022/06/21 00:22:49;;;;;;;5.82;2.55;;;13.80;96.50;;;;;;4936282;28;92401;-71
2022/06/21 00:25:20;;;;;;;10.02;4.00;;;13.80;96.60;;;;;;4936739;28;93435;-71
2022/06/21 00:27:48;;;;;;;7.40;3.38;;;13.80;96.60;;;;;;4938080;28;93116;-71
2022/06/21 00:30:16;;;;;;;7.60;2.88;;;13.70;96.60;;;;;;4936476;28;92519;-71
2022/06/21 00:32:45;;;;;;;8.98;2.88;;;13.70;96.60;;;;;;4937114;28;93283;-71
2022/06/21 00:35:17;;;;;;;7.72;3.15;;;13.60;96.80;;;;;;4918688;28;98091;-71
2022/06/21 00:37:44;;;;;;;9.00;3.70;;;13.60;97.50;;;;;;4936189;28;96535;-71
2022/06/21 00:40:19;;;;;;;9.68;3.08;;;13.50;98.10;;;;;;4937703;28;92519;-71
2022/06/21 00:42:53;;;;;;;4.55;3.22;;;13.50;98.40;;;;;;4937423;28;92335;-71
2022/06/21 00:45:34;;;;;;;8.70;3.35;;;13.50;98.80;;;;;;4936345;28;92508;-71
2022/06/21 00:48:36;;;;;;;11.20;2.90;;;13.50;98.60;;;;;;4935969;28;94126;-71
2022/06/21 00:51:27;;;;;;;6.07;3.10;;;13.50;98.30;;;;;;4929370;28;92984;-71
2022/06/21 00:54:02;;;;;;;11.85;2.92;;;13.50;98.10;;;;;;4936063;28;91817;-71
2022/06/21 00:56:38;;;;;;;7.60;2.50;;;13.40;98.00;;;;;;4937421;28;93926;-71
2022/06/21 00:59:21;;;;;;;5.93;2.75;;;13.40;97.90;;;;;;4935671;28;94195;-71
2022/06/21 01:01:48;;;;;;;5.82;3.67;;;13.40;97.90;;;;;;4934551;28;94875;-71
2022/06/21 01:04:30;;;;;;;6.15;2.78;;;13.30;98.00;;;;;;4936940;28;92498;-71
2022/06/21 01:07:01;;;;;;;9.02;3.30;;;13.40;97.90;;;;;;4952001;28;93208;-71
2022/06/21 01:09:36;;;;;;;7.95;3.17;;;13.30;97.90;;;;;;4937439;28;92371;-71
2022/06/21 01:12:09;;;;;;;4.25;2.80;;;13.30;97.90;;;;;;4937302;28;93335;-71
2022/06/21 01:14:41;;;;;;;6.43;2.57;;;13.30;97.90;;;;;;4937435;28;92384;-71
2022/06/21 01:17:11;;;;;;;6.10;3.55;;;13.20;97.80;;;;;;4951919;28;93254;-71
2022/06/21 01:19:46;;;;;;;7.72;3.45;;;13.20;97.80;;;;;;4952432;28;93361;-71
2022/06/21 01:22:51;;;;;;;9.48;3.30;;;13.20;97.80;;;;;;4937130;28;92382;-71
2022/06/21 01:25:48;;;;;;;7.15;2.90;;;13.20;97.80;;;;;;4926856;28;92998;-71
2022/06/21 01:28:15;;;;;;;9.85;4.45;;;13.10;98.00;;;;;;4928157;28;95584;-71
2022/06/21 01:30:46;;;;;;;7.72;3.30;;;13.00;98.10;;;;;;4936512;28;95335;-71
2022/06/21 01:33:16;;;;;;;6.78;3.25;;;13.10;98.00;;;;;;4936814;28;92401;-71
2022/06/21 01:35:50;;;;;;;7.03;2.72;;;13.00;98.00;;;;;;4935549;28;92520;-71
2022/06/21 01:38:26;;;;;;;;;;;13.00;98.00;;;;;;4937119;28;93480;-71
2022/06/21 01:40:58;;;;;;;5.72;2.85;;;12.90;98.10;;;;;;4968875;28;92510;-71
2022/06/21 01:43:28;;;;;;;6.80;2.50;;;12.80;98.30;;;;;;4936251;28;92495;-71
2022/06/21 01:46:00;;;;;;;8.95;2.88;;;12.90;98.50;;;;;;4936708;28;92240;-71
2022/06/21 01:48:52;;;;;;;10.50;3.17;;;12.90;98.50;;;;;;4935165;28;95383;-71
2022/06/21 01:51:28;;;;;;;7.45;3.42;;;12.90;98.70;;;;;;4936606;28;92893;-71
2022/06/21 01:53:57;;;;;;;8.00;3.15;;;12.90;99.00;;;;;;4935366;28;94809;-71
2022/06/21 01:56:30;;;;;;;6.15;2.80;;;12.80;99.10;;;;;;4936438;28;92471;-71
2022/06/21 01:59:10;;;;;;;6.57;3.72;;;12.80;98.90;;;;;;4934720;28;94769;-71
2022/06/21 02:01:47;;;;;;;9.52;3.95;;;12.80;98.70;;;;;;4919073;28;96041;-71
2022/06/21 02:04:20;;;;;;;6.32;2.83;;;12.80;98.60;;;;;;4936240;28;92453;-71
2022/06/21 02:06:48;;;;;;;5.13;2.38;;;12.70;98.40;;;;;;4935338;28;92535;-71
2022/06/21 02:09:26;;;;;;;5.68;2.63;;;12.70;98.40;;;;;;4935987;28;93249;-71
2022/06/21 02:11:58;;;;;;;6.72;4.25;;;12.70;98.20;;;;;;4935207;28;95973;-71
2022/06/21 02:14:28;;;;;;;3.95;3.33;;;12.70;98.20;;;;;;4936517;28;92379;-71
2022/06/21 02:17:29;;;;;;;6.88;2.78;;;12.70;98.20;;;;;;4951256;28;92590;-71
2022/06/21 02:20:25;;;;;;;5.40;3.45;;;12.70;98.10;;;;;;4927031;28;99033;-70
2022/06/21 02:22:52;;;;;;;6.20;2.88;;;12.60;98.00;;;;;;4927144;28;95458;-71
2022/06/21 02:25:22;;;;;;;5.30;3.00;;;12.50;98.20;;;;;;4936076;28;92411;-71
2022/06/21 02:27:52;;;;;;;6.57;2.75;;;12.50;98.30;;;;;;4934817;28;92507;-71
2022/06/21 02:30:23;;;;;;;5.90;3.45;;;12.50;98.50;;;;;;4950810;28;94224;-70
2022/06/21 02:32:53;;;;;;;9.52;3.78;;;12.50;98.50;;;;;;4934791;28;92970;-71
2022/06/21 02:35:26;;;;;;;9.63;3.97;;;12.50;98.70;;;;;;4936086;28;92995;-71
2022/06/21 02:37:56;;;;;;;6.45;2.88;;;12.50;98.80;;;;;;4935260;28;91809;-71
2022/06/21 02:40:37;;;;;;;4.55;3.72;;;12.40;98.80;;;;;;4935544;28;93184;-70
2022/06/21 02:43:42;;;;;;;8.98;3.55;;;12.40;98.80;;;;;;4935839;28;92931;-71
2022/06/21 02:46:20;;;;;;;4.07;3.47;;;12.40;98.70;;;;;;4934530;28;94870;-71
2022/06/21 02:49:10;;;;;;;4.50;2.60;;;12.30;98.70;;;;;;4934503;28;92419;-71
2022/06/21 02:51:59;;;;;;;3.95;3.60;;;12.30;98.60;;;;;;4934513;28;95746;-70
2022/06/21 02:54:29;;;;;;;4.85;3.30;;;12.20;98.50;;;;;;4935911;28;93603;-71
2022/06/21 02:57:09;;;;;;;6.18;2.88;;;12.10;98.60;;;;;;4938981;28;92455;-70
2022/06/21 02:59:40;;;;;;;7.35;3.10;;;12.10;98.50;;;;;;4937787;28;92476;-71
2022/06/21 03:02:13;;;;;;;6.55;3.35;;;12.10;98.50;;;;;;4937823;28;93235;-70
2022/06/21 03:04:47;;;;;;;5.13;3.22;;;12.00;98.60;;;;;;4939290;28;93065;-71
2022/06/21 03:07:29;;;;;;;6.55;3.22;;;12.00;98.80;;;;;;4939182;28;92902;-71
2022/06/21 03:09:57;;;;;;;6.18;2.85;;;12.00;98.90;;;;;;4937620;28;92622;-71
2022/06/21 03:12:28;;;;;;;4.15;3.75;;;11.90;98.90;;;;;;4937227;28;95672;-71
2022/06/21 03:15:00;;;;;;;5.13;3.30;;;11.90;98.80;;;;;;4938827;28;94376;-71
2022/06/21 03:17:36;;;;;;;4.18;3.30;;;11.90;98.70;;;;;;4953933;28;92462;-71
2022/06/21 03:20:11;;;;;;;8.55;3.45;;;11.90;98.80;;;;;;4937616;28;93004;-70
2022/06/21 03:22:40;;;;;;;7.88;3.60;;;11.90;98.90;;;;;;4938730;28;93262;-70
2022/06/21 03:25:24;;;;;;;5.65;3.30;;;11.90;99.10;;;;;;4937047;28;95707;-71
2022/06/21 03:27:57;;;;;;;3.37;3.07;;;11.90;99.00;;;;;;4937902;28;92900;-71
2022/06/21 03:30:31;;;;;;;4.93;2.70;;;12.00;98.80;;;;;;4938989;28;91726;-71
2022/06/21 03:32:59;;;;;;;5.45;3.25;;;11.90;98.60;;;;;;4920869;28;98820;-71
2022/06/21 03:35:30;;;;;;;5.00;3.00;;;11.90;98.50;;;;;;4936983;28;95375;-71
2022/06/21 03:37:57;;;;;;;4.82;3.35;;;11.90;98.40;;;;;;4936306;28;94836;-70
2022/06/21 03:43:14;;;;;;;5.47;2.92;;;11.90;98.50;;;;;;4938315;28;93229;-71
2022/06/21 03:45:44;;;;;;;7.57;2.97;;;11.90;98.60;;;;;;4938496;28;92580;-71
2022/06/21 03:48:28;;;;;;;4.00;3.35;;;12.00;98.60;;;;;;4938198;28;92418;-71
2022/06/21 03:51:18;;;;;;;6.03;2.92;;;12.00;98.70;;;;;;4937044;28;92570;-71
2022/06/21 03:53:47;;;;;;;3.25;2.88;;;12.10;98.60;;;;;;4938345;28;93435;-71
2022/06/21 03:56:54;;;;;;;5.10;2.97;;;12.40;98.90;;;;;;4937000;28;95630;-71
2022/06/21 03:59:32;;;;;;;3.15;2.67;;;12.90;98.20;;;;;;4896742;28;92624;-71
2022/06/21 04:02:19;;;;;;;3.55;2.72;;;13.40;97.30;;;;;;4929458;28;92484;-71
2022/06/21 04:05:03;;;;;;;6.30;3.03;;;13.70;96.70;;;;;;4935303;28;96656;-71
2022/06/21 04:07:39;;;;;;;2.78;2.33;;;13.80;96.40;;;;;;4936808;28;95465;-71
2022/06/21 04:10:38;;;;;;;4.85;3.47;;;13.90;96.20;;;;;;4938441;28;93204;-71
2022/06/21 04:13:21;;;;;;;6.05;2.67;;;13.90;96.10;;;;;;4931033;28;93062;-71
2022/06/21 04:16:10;;;;;;;7.90;2.60;;;13.90;96.10;;;;;;4936942;28;92717;-71
2022/06/21 04:18:57;;;;;;;3.42;2.75;;;13.80;96.10;;;;;;4938006;28;92496;-71
2022/06/21 04:21:32;;;;;;;6.90;3.38;;;13.80;96.00;;;;;;4936471;28;92456;-71
2022/06/21 04:24:11;;;;;;;3.35;2.50;;;13.80;96.00;;;;;;4937301;28;91711;-71
2022/06/21 04:26:51;;;;;;;4.95;2.90;;;13.80;96.10;;;;;;4936245;28;97773;-71
2022/06/21 04:29:28;;;;;;;3.45;3.15;;;13.80;96.20;;;;;;4920148;28;94214;-71
2022/06/21 04:32:06;;;;;;;5.80;2.75;;;13.80;96.20;;;;;;4936821;28;94788;-71
2022/06/21 04:34:43;;;;;;;5.43;3.40;;;13.80;96.40;;;;;;4937509;28;92461;-71
2022/06/21 04:37:29;;;;;;;4.50;3.85;;;13.80;96.50;;;;;;4937683;28;93271;-71
2022/06/21 04:40:05;;;;;;;5.40;4.18;;;13.80;96.50;;;;;;4937659;28;92948;-71
2022/06/21 04:42:55;;;;;;;4.88;3.60;;;13.80;96.70;;;;;;4936128;28;92518;-71
2022/06/21 04:45:44;;;;;;;4.10;3.03;;;13.90;96.80;;;;;;4937220;28;92349;-71
2022/06/21 04:48:31;;;;;;;7.18;5.15;;;13.90;96.90;;;;;;4920083;28;95821;-71
2022/06/21 04:51:27;;;;;;;5.25;4.45;;;13.90;96.90;;;;;;4936391;28;95590;-71
2022/06/21 04:54:24;;;;;;;9.10;4.45;;;14.00;96.90;;;;;;4937738;28;92357;-71
2022/06/21 04:57:24;;;;;;;4.38;2.90;;;14.00;97.10;;;;;;4936080;28;92345;-71
2022/06/21 05:00:03;;;;;;;6.50;4.65;;;14.10;97.20;;;;;;4934387;28;95686;-71
2022/06/21 05:02:46;;;;;;;6.63;3.40;;;14.10;97.60;;;;;;4935559;28;95538;-71
2022/06/21 05:05:27;;;;;;;6.22;3.45;;;14.30;97.30;;;;;;4935849;28;92436;-71
2022/06/21 05:07:54;;;;;;;6.78;4.20;;;14.40;97.30;;;;;;4937427;28;92440;-71
2022/06/21 05:10:36;;;;;;;7.18;4.07;;;14.60;97.30;;;;;;4935359;28;96072;-71
2022/06/21 05:13:11;;;;;;;6.25;3.40;;;14.70;97.20;;;;;;4935678;28;95509;-71
2022/06/21 05:15:39;;;;;;;5.95;3.42;;;14.90;97.00;;;;;;4937040;28;92546;-71
2022/06/21 05:18:13;;;;;;;5.85;4.20;;;15.00;96.70;;;;;;4937203;28;91767;-71
2022/06/21 05:20:53;;;;;;;6.95;3.63;;;15.30;96.50;;;;;;4935078;28;96250;-71
2022/06/21 05:23:23;;;;;;;4.80;3.53;;;15.50;96.40;;;;;;4937134;28;93059;-71
2022/06/21 05:25:51;;;;;;;6.85;4.60;;;15.70;96.30;;;;;;4935870;28;94839;-71
2022/06/21 05:28:49;;;;;;;5.15;3.15;;;15.80;96.20;;;;;;4935639;28;92420;-71
2022/06/21 05:31:20;;;;;;;8.82;4.50;;;16.30;95.90;;;;;;4936945;28;93769;-71
2022/06/21 05:34:00;;;;;;;7.10;4.55;;;16.60;95.60;;;;;;4919237;28;95908;-71
2022/06/21 05:36:38;;;;;;;5.53;4.45;;;17.00;95.20;;;;;;4936977;28;92538;-71
2022/06/21 05:39:20;;;;;;;8.25;3.90;;;17.30;94.90;;;;;;4936976;28;92418;-71
2022/06/21 05:41:52;;;;;;;5.45;3.35;;;17.60;94.50;;;;;;4936621;28;93147;-71
2022/06/21 05:44:48;;;;;;;7.00;4.13;;;17.90;94.10;;;;;;4937035;28;93011;-71
2022/06/21 05:47:22;;;;;;;4.72;4.18;;;18.30;93.30;;;;;;4919507;28;92906;-71
2022/06/21 05:49:50;;;;;;;7.63;3.45;;;18.60;93.10;;;;;;4936664;28;92891;-71
2022/06/21 05:52:23;;;;;;;7.22;4.80;;;18.90;92.70;;;;;;4950134;28;96540;-71
2022/06/21 05:55:15;;;;;;;5.53;2.85;;;19.10;92.10;;;;;;4951238;28;96496;-71
2022/06/21 05:57:44;;;;;;;6.45;3.60;;;19.30;91.90;;;;;;4936538;28;92953;-71
2022/06/21 06:00:43;;;;;;;8.23;3.50;;;19.30;91.60;;;;;;4918923;28;92411;-71
2022/06/21 06:03:37;;;;;;;5.32;4.25;;;19.40;91.10;;;;;;4936077;28;93275;-71
2022/06/21 06:06:05;;;;;;;;;;;19.30;91.40;;;;;;4952060;28;93141;-71
2022/06/21 06:08:39;;;;;;;5.43;4.63;;;19.10;91.20;;;;;;4935878;28;92510;-71
2022/06/21 06:11:16;;;;;;;6.80;3.38;;;19.20;92.00;;;;;;4933909;28;92304;-71
2022/06/21 06:13:45;;;;;;;7.57;3.83;;;19.30;91.50;;;;;;4936255;28;93155;-71
2022/06/21 06:16:37;;;;;;;5.75;3.47;;;19.30;91.20;;;;;;4919259;28;94173;-71
2022/06/21 06:19:22;;;;;;;8.27;3.10;;;19.30;91.00;;;;;;4933901;28;95296;-71
2022/06/21 06:21:53;;;;;;;5.10;3.45;;;19.20;91.10;;;;;;4936156;28;92358;-71
2022/06/21 06:24:26;;;;;;;5.72;4.63;;;19.10;91.40;;;;;;4936320;28;93285;-71
2022/06/21 06:26:58;;;;;;;4.47;3.58;;;19.00;91.10;;;;;;4934710;28;96262;-71
2022/06/21 06:29:40;;;;;;;4.60;3.65;;;18.90;90.90;;;;;;4934825;28;92441;-71
2022/06/21 06:32:21;;;;;;;6.93;2.40;;;19.00;91.10;;;;;;4954788;28;92430;-71
2022/06/21 06:34:52;;;;;;;4.43;2.05;;;18.90;91.00;;;;;;4937608;28;95706;-71
2022/06/21 06:37:52;;;;;;;5.93;1.95;;;18.90;90.60;;;;;;4939755;28;92945;-71
2022/06/21 06:40:43;;;;;;;4.80;2.00;;;18.90;88.90;;;;;;4917177;28;92648;-71
2022/06/21 06:43:31;;;;;;;6.20;2.20;;;18.70;88.70;;;;;;4938521;28;92481;-71
2022/06/21 06:45:58;;;;;;;5.78;3.60;;;18.60;89.70;;;;;;4938012;28;95443;-71
2022/06/21 06:48:30;;;;;;;5.97;2.97;;;18.50;90.10;;;;;;4939173;28;95457;-71
2022/06/21 06:51:32;;;;;;;6.60;2.92;;;18.50;90.10;;;;;;4954381;28;92346;-71
2022/06/21 06:54:01;;;;;;;7.05;2.40;;;18.50;90.00;;;;;;4936170;28;92302;-71
2022/06/21 06:56:36;;;;;;;10.23;3.75;;;18.50;90.30;;;;;;4937537;28;93174;-71
2022/06/21 06:59:12;;;;;;;5.65;3.35;;;18.60;90.30;;;;;;4939292;28;92942;-71
2022/06/21 07:01:51;;;;;;;5.10;3.55;;;18.70;90.10;;;;;;4937816;28;92531;-71
2022/06/21 07:04:19;;;;;;;6.70;2.28;;;18.80;89.70;;;;;;4939374;28;91738;-71
2022/06/21 07:06:54;;;;;;;6.95;3.80;;;18.70;89.30;;;;;;4938606;28;93315;-71
2022/06/21 07:09:27;;;;;;;4.10;2.75;;;18.70;89.60;;;;;;4938920;28;93034;-71
2022/06/21 07:12:00;;;;;;;;;;;18.80;89.60;;;;;;4938292;28;94864;-71
2022/06/21 07:14:29;;;;;;;6.32;3.38;;;18.70;89.50;;;;;;4940457;28;92539;-71
2022/06/21 07:17:22;;;;;;;3.55;2.60;;;18.70;90.00;;;;;;4953303;28;93179;-71
2022/06/21 07:19:51;;;;;;;3.23;2.83;;;18.90;89.80;;;;;;4938457;28;93074;-71
2022/06/21 07:22:21;;;;;;;5.47;2.90;;;18.90;89.90;;;;;;4938958;28;92448;-71
2022/06/21 07:25:03;;;;;;;6.25;3.08;;;19.00;88.90;;;;;;4937687;28;92428;-71
2022/06/21 07:27:34;;;;;;;5.55;2.75;;;19.10;89.00;;;;;;4938964;28;93129;-71
2022/06/21 07:30:06;;;;;;;4.95;3.78;;;19.10;89.00;;;;;;4939084;28;92904;-71
2022/06/21 07:32:47;;;;;;;3.80;3.47;;;19.30;88.60;;;;;;4938902;28;92510;-71
2022/06/21 07:35:25;;;;;;;3.15;2.85;;;19.40;87.80;;;;;;4937253;28;92586;-71
2022/06/21 07:38:09;;;;;;;5.03;2.35;;;19.40;87.60;;;;;;4935832;28;97335;-71
2022/06/21 07:40:46;;;;;;;4.75;2.97;;;19.60;87.00;;;;;;4936859;28;96878;-71
2022/06/21 07:43:23;;;;;;;4.72;2.40;;;19.70;86.80;;;;;;4938837;28;92494;-71
2022/06/21 07:45:58;;;;;;;4.88;2.05;;;19.70;86.80;;;;;;4938516;28;92347;-71
2022/06/21 07:48:38;;;;;;;3.63;2.45;;;19.80;85.80;;;;;;4936853;28;94207;-71
2022/06/21 07:51:13;;;;;;;5.15;3.10;;;19.80;85.20;;;;;;4936781;28;95509;-71
2022/06/21 07:53:40;;;;;;;4.13;2.92;;;20.00;85.10;;;;;;4938462;28;92566;-71
2022/06/21 07:56:23;;;;;;;5.35;3.00;;;20.10;84.90;;;;;;4938869;28;91725;-71
2022/06/21 07:59:05;;;;;;;3.85;3.45;;;20.30;84.70;;;;;;4937621;28;93352;-71
2022/06/21 08:07:51;;;;;;;6.85;3.05;;;20.50;84.20;;;;;;4936506;28;92563;-71
2022/06/21 08:10:24;;;;;;;4.63;3.95;;;21.10;83.20;;;;;;4936984;28;93273;-71
2022/06/21 08:12:53;;;;;;;4.88;3.28;;;21.80;80.80;;;;;;4937797;28;92851;-71
2022/06/21 08:15:27;;;;;;;4.55;3.65;;;23.00;78.60;;;;;;4936702;28;92532;-71
2022/06/21 08:18:13;;;;;;;5.20;2.30;;;24.40;74.50;;;;;;4937891;28;92423;-72
2022/06/21 08:20:47;;;;;;;7.05;2.22;;;26.10;69.80;;;;;;4938008;28;93407;-72
2022/06/21 08:23:21;;;;;;;2.90;2.60;;;27.60;67.10;;;;;;4938187;28;93095;-69
2022/06/21 08:25:55;;;;;;;4.00;3.45;;;29.10;62.40;;;;;;4938013;28;92471;-69
2022/06/21 08:28:41;;;;;;;3.65;2.42;;;30.50;56.90;;;;;;4936496;28;92445;-70
2022/06/21 08:31:16;;;;;;;4.65;2.20;;;31.80;53.10;;;;;;4936393;28;95628;-70
2022/06/21 08:33:53;;;;;;;4.60;2.30;;;32.40;51.60;;;;;;4952569;28;95492;-70
2022/06/21 08:36:26;;;;;;;3.75;1.60;;;33.50;47.50;;;;;;4935996;28;92655;-70
2022/06/21 08:38:59;;;;;;;3.75;2.58;;;34.20;45.80;;;;;;4937542;28;92362;-70
2022/06/21 08:41:52;;;;;;;3.78;1.80;;;34.80;43.30;;;;;;4937573;28;93354;-70
2022/06/21 08:44:24;;;;;;;3.55;3.25;;;35.60;41.00;;;;;;4918048;28;93036;-70
2022/06/21 08:47:30;;;;;;;3.22;2.08;;;35.60;40.90;;;;;;4937301;28;92483;-70
2022/06/21 08:50:58;;;;;;;3.95;2.55;;;36.30;37.50;;;;;;4897226;28;91875;-70
2022/06/21 08:53:29;;;;;;;2.00;1.30;;;36.00;36.50;;;;;;4879920;28;95977;-70
2022/06/21 08:56:15;;;;;;;2.60;1.77;;;35.30;38.30;;;;;;4933719;28;94199;-70
2022/06/21 08:59:17;;;;;;;1.92;1.40;;;35.50;37.80;;;;;;4936489;28;95322;-70
2022/06/21 09:01:53;;;;;;;;;;;34.90;37.40;;;;;;4936485;28;92638;-70
2022/06/21 09:04:42;;;;;;;3.83;2.58;;;33.30;38.80;;;;;;4969622;28;93286;-70
2022/06/21 09:07:23;;;;;;;3.22;1.80;;;33.20;39.70;;;;;;4937101;28;93030;-70
2022/06/21 09:10:09;;;;;;;3.05;2.03;;;32.90;39.70;;;;;;4935858;28;92483;-70
2022/06/21 09:13:07;;;;;;;2.70;1.38;;;32.80;39.40;;;;;;4935663;28;92508;-70
2022/06/21 09:16:12;;;;;;;2.60;2.03;;;32.20;40.60;;;;;;4937076;28;93202;-70
2022/06/21 09:19:06;;;;;;;1.73;0.90;;;31.30;40.40;;;;;;4937554;28;93000;-69
2022/06/21 09:22:00;;;;;;;1.70;1.30;;;30.10;42.20;;;;;;4935987;28;92530;-69
2022/06/21 09:24:42;;;;;;;2.80;2.13;;;29.30;43.60;;;;;;4936954;28;92513;-69
2022/06/21 09:27:34;;;;;;;3.35;1.20;;;28.50;45.20;;;;;;4935470;28;95637;-69
2022/06/21 09:30:02;;;;;;;4.18;1.67;;;28.00;47.80;;;;;;4936713;28;95385;-69
2022/06/21 09:32:44;;;;;;;4.50;2.95;;;27.50;49.70;;;;;;4937039;28;92793;-69
2022/06/21 09:35:40;;;;;;;3.28;1.20;;;27.50;49.80;;;;;;4935159;28;92421;-69
2022/06/21 09:38:21;;;;;;;4.10;2.38;;;27.20;51.20;;;;;;4936658;28;93180;-69
2022/06/21 09:41:13;;;;;;;3.83;2.47;;;27.00;51.50;;;;;;4935388;28;94395;-69
2022/06/21 09:44:08;;;;;;;3.58;2.17;;;26.90;52.70;;;;;;4935790;28;92507;-69
2022/06/21 09:47:21;;;;;;;2.72;2.33;;;26.70;53.50;;;;;;4936095;28;92164;-69
2022/06/21 09:50:34;;;;;;;2.63;2.50;;;26.50;53.50;;;;;;4935143;28;95710;-69
2022/06/21 09:53:13;;;;;;;1.80;1.40;;;26.10;51.20;;;;;;4895444;28;92917;-69
2022/06/21 09:55:52;;;;;;;2.55;1.52;;;25.70;50.70;;;;;;4894808;28;95472;-69
2022/06/21 09:58:37;;;;;;;3.80;1.70;;;25.40;53.90;;;;;;4923968;28;92552;-69
2022/06/21 10:01:31;;;;;;;4.90;2.47;;;25.10;54.20;;;;;;4936261;28;93274;-69
2022/06/21 10:04:11;;;;;;;4.82;3.42;;;25.00;55.90;;;;;;4935766;28;92947;-69
2022/06/21 10:06:49;;;;;;;3.65;1.55;;;24.90;55.30;;;;;;4939627;28;92370;-69
2022/06/21 10:09:33;;;;;;;5.43;1.38;;;24.80;54.50;;;;;;4938229;28;92536;-69
2022/06/21 10:12:25;;;;;;;2.40;1.40;;;24.90;54.00;;;;;;4938122;28;95944;-69
2022/06/21 10:15:17;;;;;;;4.35;2.38;;;25.00;55.50;;;;;;4939936;28;94998;-69
2022/06/21 10:17:56;;;;;;;4.07;1.50;;;25.00;53.80;;;;;;4938484;28;92521;-69
2022/06/21 10:20:46;;;;;;;2.85;1.48;;;25.10;55.10;;;;;;4940101;28;92951;-69
2022/06/21 10:23:50;;;;;;;3.40;1.77;;;25.10;55.80;;;;;;4938303;28;95770;-69
2022/06/21 10:26:17;;;;;;;;;;;25.00;56.50;;;;;;4939885;28;95286;-69
2022/06/21 10:29:06;;;;;;;2.33;2.05;;;24.90;57.20;;;;;;4940820;28;92546;-69
2022/06/21 10:31:53;;;;;;;4.25;1.98;;;24.90;55.80;;;;;;4939898;28;92443;-69
2022/06/21 10:34:35;;;;;;;3.50;2.53;;;25.10;55.40;;;;;;4939306;28;93198;-69
2022/06/21 10:37:15;;;;;;;3.55;1.70;;;25.20;56.20;;;;;;4939393;28;93010;-69
2022/06/21 10:40:20;;;;;;;2.08;1.77;;;25.30;56.40;;;;;;4938111;28;92491;-69
2022/06/21 10:43:33;;;;;;;3.08;2.78;;;25.50;56.10;;;;;;4939848;28;91693;-69
2022/06/21 10:46:10;;;;;;;4.43;2.90;;;25.80;54.90;;;;;;4909498;28;93236;-69
2022/06/21 10:48:56;;;;;;;3.30;1.52;;;26.00;55.10;;;;;;4939460;28;93087;-69
2022/06/21 10:51:31;;;;;;;2.45;1.50;;;26.10;53.30;;;;;;4938190;28;94852;-69
2022/06/21 10:54:20;;;;;;;2.05;1.30;;;26.20;53.60;;;;;;4937748;28;93050;-69
2022/06/21 10:57:12;;;;;;;2.60;2.13;;;26.40;54.00;;;;;;4939121;28;93231;-69
2022/06/21 11:03:05;;;;;;;2.92;1.10;;;26.60;51.70;;;;;;4938747;28;92466;-69
2022/06/21 11:05:56;;;;;;;3.53;1.30;;;26.50;51.70;;;;;;4936962;28;92929;-69
2022/06/21 11:08:26;;;;;;;6.45;1.73;;;26.60;52.20;;;;;;4907225;28;93149;-69
2022/06/21 11:11:17;;;;;;;3.38;1.77;;;26.60;52.50;;;;;;4938007;28;91843;-69
2022/06/21 11:13:56;;;;;;;3.90;1.45;;;26.70;52.80;;;;;;4936780;28;92475;-70
2022/06/21 11:16:37;;;;;;;4.88;2.00;;;26.80;52.70;;;;;;4937475;28;92335;-70
2022/06/21 11:19:47;;;;;;;3.67;1.50;;;26.90;52.00;;;;;;4936521;28;95589;-70
2022/06/21 11:22:53;;;;;;;2.58;2.38;;;27.00;52.00;;;;;;4937450;28;95250;-70
2022/06/21 11:25:46;;;;;;;4.55;1.60;;;26.90;51.20;;;;;;4936005;28;92518;-70
2022/06/21 11:28:18;;;;;;;2.92;2.65;;;26.70;52.10;;;;;;4952868;28;92386;-70
2022/06/21 11:30:57;;;;;;;2.28;2.08;;;26.70;52.80;;;;;;4936203;28;95697;-70
2022/06/21 11:33:49;;;;;;;2.70;1.60;;;26.80;51.10;;;;;;4935860;28;96048;-70
2022/06/21 11:36:44;;;;;;;1.60;1.15;;;27.00;50.60;;;;;;4935853;28;92541;-70
2022/06/21 11:39:47;;;;;;;2.30;1.42;;;27.00;50.50;;;;;;4952771;28;91624;-70
2022/06/21 11:42:21;;;;;;;3.33;2.30;;;27.00;50.30;;;;;;4935721;28;94744;-70
2022/06/21 11:45:16;;;;;;;2.28;1.52;;;26.90;51.30;;;;;;4919844;28;95510;-70
2022/06/21 11:48:01;;;;;;;3.10;1.60;;;27.00;50.70;;;;;;4934808;28;95269;-70
2022/06/21 11:50:53;;;;;;;3.55;1.35;;;27.10;50.10;;;;;;4937246;28;93241;-70
2022/06/21 11:53:33;;;;;;;2.50;1.40;;;27.30;50.40;;;;;;4937040;28;93124;-70
2022/06/21 11:56:21;;;;;;;3.25;2.05;;;27.40;50.50;;;;;;4936735;28;92852;-70
2022/06/21 11:59:05;;;;;;;3.35;1.52;;;27.50;50.00;;;;;;4936011;28;92599;-70
2022/06/21 12:01:34;;;;;;;3.28;1.88;;;27.60;49.40;;;;;;4937020;28;92340;-70
2022/06/21 12:04:29;;;;;;;3.03;2.75;;;27.50;48.90;;;;;;4896250;28;1184909;-70
2022/06/21 12:07:18;;;;;;;2.47;1.02;;;27.60;48.60;;;;;;4938584;28;92994;-70
2022/06/21 12:10:04;;;;;;;1.95;1.38;;;27.50;49.40;;;;;;4938403;28;92425;-70
2022/06/21 12:13:14;;;;;;;2.80;1.38;;;27.30;48.80;;;;;;4938323;28;92444;-70
2022/06/21 12:16:05;;;;;;;2.92;1.73;;;27.30;49.00;;;;;;4944520;28;95576;-70
2022/06/21 12:18:35;;;;;;;2.40;1.20;;;27.10;50.40;;;;;;4936048;28;97861;-70
2022/06/21 12:21:11;;;;;;;3.10;1.63;;;27.10;50.10;;;;;;4937790;28;92819;-70
2022/06/21 12:24:03;;;;;;;3.53;2.15;;;27.20;50.50;;;;;;4937746;28;92413;-70
2022/06/21 12:26:31;;;;;;;3.83;1.98;;;27.40;49.20;;;;;;4937138;28;94266;-70
2022/06/21 12:28:59;;;;;;;3.97;1.30;;;27.40;48.60;;;;;;4936843;28;92973;-70
2022/06/21 12:31:33;;;;;;;4.57;2.03;;;27.50;48.40;;;;;;4937895;28;92395;-70
2022/06/21 12:34:07;;;;;;;3.85;3.00;;;27.50;48.30;;;;;;4936675;28;92019;-70
2022/06/21 12:36:38;;;;;;;2.60;1.33;;;27.50;49.30;;;;;;4937452;28;93326;-70
2022/06/21 12:39:26;;;;;;;1.95;1.23;;;27.50;48.90;;;;;;4936518;28;92936;-70
2022/06/21 12:42:41;;;;;;;2.42;2.15;;;27.60;49.70;;;;;;4936929;28;94809;-70
2022/06/21 12:45:13;;;;;;;3.53;1.30;;;27.40;49.50;;;;;;4930861;28;92691;-70
2022/06/21 12:47:47;;;;;;;1.88;1.63;;;27.20;50.40;;;;;;4936080;28;96736;-70
2022/06/21 12:51:04;;;;;;;3.67;2.03;;;27.30;50.30;;;;;;4937529;28;92751;-70
2022/06/21 12:53:49;;;;;;;2.67;2.45;;;27.40;49.50;;;;;;4915172;28;93362;-70
2022/06/21 12:56:37;;;;;;;4.22;1.40;;;27.60;49.60;;;;;;4936058;28;93074;-70
2022/06/21 12:59:23;;;;;;;1.77;1.50;;;27.60;48.90;;;;;;4935715;28;95845;-70
2022/06/21 13:02:49;;;;;;;3.97;1.77;;;27.40;49.30;;;;;;4937767;28;92914;-70
2022/06/21 13:05:36;;;;;;;2.30;1.40;;;27.40;50.10;;;;;;4896401;28;92569;-71
2022/06/21 13:08:24;;;;;;;2.97;2.08;;;27.20;49.90;;;;;;4896776;28;92390;-70
2022/06/21 13:11:00;;;;;;;2.35;1.40;;;27.20;49.80;;;;;;4911772;28;98072;-70
2022/06/21 13:13:56;;;;;;;2.55;1.80;;;27.20;49.80;;;;;;4935273;28;95404;-70
2022/06/21 13:16:41;;;;;;;4.03;2.58;;;27.30;49.80;;;;;;4921161;28;92554;-70
2022/06/21 13:19:23;;;;;;;1.30;1.20;;;27.20;49.00;;;;;;4937284;28;93109;-70
2022/06/21 13:22:23;;;;;;;2.97;1.98;;;27.20;49.40;;;;;;4935909;28;93149;-70
2022/06/21 13:25:01;;;;;;;2.45;2.25;;;27.30;50.50;;;;;;4935903;28;93294;-70
2022/06/21 13:27:37;;;;;;;4.20;1.45;;;27.30;50.20;;;;;;4935516;28;92436;-70
2022/06/21 13:30:16;;;;;;;2.20;2.00;;;27.50;50.10;;;;;;4920116;28;91622;-71
2022/06/21 13:33:03;;;;;;;2.00;1.20;;;27.50;50.10;;;;;;4935350;28;93489;-70
2022/06/21 13:36:02;;;;;;;2.10;2.00;;;27.80;49.60;;;;;;4934907;28;95802;-70
2022/06/21 13:38:41;;;;;;;2.67;1.33;;;28.00;49.00;;;;;;4934080;28;95250;-70
2022/06/21 13:44:44;;;;;;;2.88;2.25;;;28.40;48.40;;;;;;4936975;28;93171;-70
2022/06/21 13:47:40;;;;;;;3.23;2.90;;;28.60;46.90;;;;;;4936778;28;92636;-70
2022/06/21 13:50:09;;;;;;;3.58;1.35;;;28.70;47.80;;;;;;4932710;28;92391;-70
2022/06/21 13:52:45;;;;;;;2.72;1.65;;;28.60;47.50;;;;;;4936505;28;92464;-70
2022/06/21 13:55:43;;;;;;;2.53;1.45;;;28.70;47.20;;;;;;4936548;28;93354;-70
2022/06/21 13:58:23;;;;;;;3.20;1.30;;;28.70;46.80;;;;;;4935852;28;93026;-71
2022/06/21 14:00:55;;;;;;;2.70;1.73;;;28.60;46.50;;;;;;4936762;28;92507;-70
2022/06/21 14:03:28;;;;;;;6.33;2.00;;;28.50;46.40;;;;;;4934965;28;93120;-71
2022/06/21 14:06:03;;;;;;;3.63;1.98;;;28.40;46.80;;;;;;4935010;28;95615;-70
2022/06/21 14:08:30;;;;;;;3.45;1.60;;;28.40;47.10;;;;;;4934924;28;95627;-71
2022/06/21 14:11:27;;;;;;;2.13;1.52;;;28.40;47.10;;;;;;4936587;28;92344;-70
2022/06/21 14:14:37;;;;;;;2.85;1.35;;;28.40;46.50;;;;;;4935359;28;92496;-71